sensor_id;sensor_type;location;lat;lon;timestamp;P1;durP1;ratioP1;P2;durP2;ratioP2
77026;SDS011;65956;52.986;17.490;2023-11-21T00:00:36;20.10;;;10.60;;
77026;SDS011;65956;52.986;17.490;2023-11-21T00:03:22;19.90;;;10.50;;
77026;SDS011;65956;52.986;17.490;2023-11-21T00:05:49;18.10;;;9.90;;
77026;SDS011;65956;52.986;17.490;2023-11-21T00:08:15;19.60;;;10.90;;
77026;SDS011;65956;52.986;17.490;2023-11-21T00:10:41;16.90;;;9.60;;
77026;SDS011;65956;52.986;17.490;2023-11-21T00:13:07;19.20;;;11.70;;
77026;SDS011;65956;52.986;17.490;2023-11-21T00:15:33;19.50;;;11.10;;
77026;SDS011;65956;52.986;17.490;2023-11-21T00:17:59;19.60;;;11.30;;
77026;SDS011;65956;52.986;17.490;2023-11-21T00:20:25;18.40;;;9.50;;
77026;SDS011;65956;52.986;17.490;2023-11-21T00:22:52;16.80;;;8.40;;
77026;SDS011;65956;52.986;17.490;2023-11-21T00:25:18;16.30;;;9.00;;
77026;SDS011;65956;52.986;17.490;2023-11-21T00:27:44;17.00;;;8.80;;
77026;SDS011;65956;52.986;17.490;2023-11-21T00:30:11;18.30;;;10.20;;
77026;SDS011;65956;52.986;17.490;2023-11-21T00:32:38;18.90;;;10.20;;
77026;SDS011;65956;52.986;17.490;2023-11-21T00:35:05;16.30;;;8.90;;
77026;SDS011;65956;52.986;17.490;2023-11-21T00:37:31;16.10;;;8.90;;
77026;SDS011;65956;52.986;17.490;2023-11-21T00:39:58;15.70;;;9.90;;
77026;SDS011;65956;52.986;17.490;2023-11-21T00:42:24;17.40;;;10.20;;
77026;SDS011;65956;52.986;17.490;2023-11-21T00:44:50;19.80;;;10.70;;
77026;SDS011;65956;52.986;17.490;2023-11-21T00:47:16;22.00;;;11.80;;
77026;SDS011;65956;52.986;17.490;2023-11-21T00:49:43;22.90;;;12.60;;
77026;SDS011;65956;52.986;17.490;2023-11-21T00:52:09;28.50;;;14.10;;
77026;SDS011;65956;52.986;17.490;2023-11-21T00:54:35;22.40;;;13.10;;
77026;SDS011;65956;52.986;17.490;2023-11-21T00:57:01;22.10;;;11.60;;
77026;SDS011;65956;52.986;17.490;2023-11-21T00:59:27;20.80;;;10.80;;
77026;SDS011;65956;52.986;17.490;2023-11-21T01:01:53;21.10;;;11.90;;
77026;SDS011;65956;52.986;17.490;2023-11-21T01:04:20;21.00;;;11.30;;
77026;SDS011;65956;52.986;17.490;2023-11-21T01:06:46;19.00;;;10.40;;
77026;SDS011;65956;52.986;17.490;2023-11-21T01:09:12;20.20;;;11.80;;
77026;SDS011;65956;52.986;17.490;2023-11-21T01:11:38;19.20;;;10.40;;
77026;SDS011;65956;52.986;17.490;2023-11-21T01:14:04;17.80;;;9.50;;
77026;SDS011;65956;52.986;17.490;2023-11-21T01:16:30;20.00;;;11.40;;
77026;SDS011;65956;52.986;17.490;2023-11-21T01:18:58;20.60;;;11.50;;
77026;SDS011;65956;52.986;17.490;2023-11-21T01:21:25;20.90;;;11.20;;
77026;SDS011;65956;52.986;17.490;2023-11-21T01:23:51;17.70;;;10.20;;
77026;SDS011;65956;52.986;17.490;2023-11-21T01:26:17;21.20;;;12.30;;
77026;SDS011;65956;52.986;17.490;2023-11-21T01:28:43;19.80;;;11.90;;
77026;SDS011;65956;52.986;17.490;2023-11-21T01:31:09;18.70;;;10.40;;
77026;SDS011;65956;52.986;17.490;2023-11-21T01:33:35;15.40;;;9.40;;
77026;SDS011;65956;52.986;17.490;2023-11-21T01:36:01;16.70;;;9.30;;
77026;SDS011;65956;52.986;17.490;2023-11-21T01:38:27;18.50;;;10.70;;
77026;SDS011;65956;52.986;17.490;2023-11-21T01:40:53;19.00;;;10.40;;
77026;SDS011;65956;52.986;17.490;2023-11-21T01:43:19;18.80;;;10.00;;
77026;SDS011;65956;52.986;17.490;2023-11-21T01:45:45;19.00;;;10.10;;
77026;SDS011;65956;52.986;17.490;2023-11-21T01:48:11;19.40;;;9.90;;
77026;SDS011;65956;52.986;17.490;2023-11-21T01:50:39;18.40;;;10.00;;
77026;SDS011;65956;52.986;17.490;2023-11-21T01:53:05;20.10;;;10.60;;
77026;SDS011;65956;52.986;17.490;2023-11-21T01:55:32;18.40;;;10.20;;
77026;SDS011;65956;52.986;17.490;2023-11-21T01:57:59;17.90;;;10.10;;
77026;SDS011;65956;52.986;17.490;2023-11-21T02:00:26;18.50;;;10.70;;
77026;SDS011;65956;52.986;17.490;2023-11-21T02:02:55;19.80;;;11.20;;
77026;SDS011;65956;52.986;17.490;2023-11-21T02:05:22;22.70;;;13.10;;
77026;SDS011;65956;52.986;17.490;2023-11-21T02:07:48;23.60;;;13.00;;
77026;SDS011;65956;52.986;17.490;2023-11-21T02:10:15;24.20;;;12.80;;
77026;SDS011;65956;52.986;17.490;2023-11-21T02:12:42;24.20;;;14.00;;
77026;SDS011;65956;52.986;17.490;2023-11-21T02:15:09;23.80;;;12.30;;
77026;SDS011;65956;52.986;17.490;2023-11-21T02:17:43;24.80;;;12.80;;
77026;SDS011;65956;52.986;17.490;2023-11-21T02:20:13;17.30;;;10.60;;
77026;SDS011;65956;52.986;17.490;2023-11-21T02:22:53;15.30;;;8.60;;
77026;SDS011;65956;52.986;17.490;2023-11-21T02:25:34;14.00;;;8.10;;
77026;SDS011;65956;52.986;17.490;2023-11-21T02:28:03;13.10;;;7.60;;
77026;SDS011;65956;52.986;17.490;2023-11-21T02:30:29;13.80;;;6.90;;
77026;SDS011;65956;52.986;17.490;2023-11-21T02:32:59;11.90;;;7.30;;
77026;SDS011;65956;52.986;17.490;2023-11-21T02:35:28;12.40;;;7.00;;
77026;SDS011;65956;52.986;17.490;2023-11-21T02:37:54;15.70;;;8.40;;
77026;SDS011;65956;52.986;17.490;2023-11-21T02:40:20;16.50;;;9.40;;
77026;SDS011;65956;52.986;17.490;2023-11-21T02:42:46;15.30;;;8.60;;
77026;SDS011;65956;52.986;17.490;2023-11-21T02:45:13;15.10;;;9.00;;
77026;SDS011;65956;52.986;17.490;2023-11-21T02:47:44;15.90;;;9.70;;
77026;SDS011;65956;52.986;17.490;2023-11-21T02:50:11;17.20;;;9.40;;
77026;SDS011;65956;52.986;17.490;2023-11-21T02:52:37;16.50;;;9.10;;
77026;SDS011;65956;52.986;17.490;2023-11-21T02:55:05;17.10;;;9.30;;
77026;SDS011;65956;52.986;17.490;2023-11-21T02:57:35;16.20;;;9.00;;
77026;SDS011;65956;52.986;17.490;2023-11-21T03:00:01;13.60;;;7.80;;
77026;SDS011;65956;52.986;17.490;2023-11-21T03:02:28;15.60;;;9.10;;
77026;SDS011;65956;52.986;17.490;2023-11-21T03:04:54;16.40;;;9.40;;
77026;SDS011;65956;52.986;17.490;2023-11-21T03:07:20;18.90;;;11.10;;
77026;SDS011;65956;52.986;17.490;2023-11-21T03:09:47;17.70;;;9.50;;
77026;SDS011;65956;52.986;17.490;2023-11-21T03:12:13;14.00;;;7.70;;
77026;SDS011;65956;52.986;17.490;2023-11-21T03:14:40;16.10;;;9.10;;
77026;SDS011;65956;52.986;17.490;2023-11-21T03:17:06;16.50;;;8.50;;
77026;SDS011;65956;52.986;17.490;2023-11-21T03:19:32;18.60;;;9.90;;
77026;SDS011;65956;52.986;17.490;2023-11-21T03:21:58;15.70;;;8.20;;
77026;SDS011;65956;52.986;17.490;2023-11-21T03:24:24;19.40;;;10.10;;
77026;SDS011;65956;52.986;17.490;2023-11-21T03:26:52;17.10;;;9.50;;
77026;SDS011;65956;52.986;17.490;2023-11-21T03:29:18;16.60;;;9.60;;
77026;SDS011;65956;52.986;17.490;2023-11-21T03:31:44;16.30;;;8.90;;
77026;SDS011;65956;52.986;17.490;2023-11-21T03:34:14;17.50;;;9.90;;
77026;SDS011;65956;52.986;17.490;2023-11-21T03:36:41;17.50;;;9.20;;
77026;SDS011;65956;52.986;17.490;2023-11-21T03:39:07;18.70;;;9.80;;
77026;SDS011;65956;52.986;17.490;2023-11-21T03:41:33;19.80;;;10.30;;
77026;SDS011;65956;52.986;17.490;2023-11-21T03:43:59;20.00;;;11.60;;
77026;SDS011;65956;52.986;17.490;2023-11-21T03:46:26;23.00;;;12.70;;
77026;SDS011;65956;52.986;17.490;2023-11-21T03:48:52;18.50;;;9.90;;
77026;SDS011;65956;52.986;17.490;2023-11-21T03:51:18;16.00;;;9.10;;
77026;SDS011;65956;52.986;17.490;2023-11-21T03:53:44;18.00;;;10.50;;
77026;SDS011;65956;52.986;17.490;2023-11-21T03:56:10;16.60;;;9.70;;
77026;SDS011;65956;52.986;17.490;2023-11-21T03:58:35;16.30;;;9.30;;
77026;SDS011;65956;52.986;17.490;2023-11-21T04:01:01;18.20;;;9.80;;
77026;SDS011;65956;52.986;17.490;2023-11-21T04:03:27;17.80;;;10.70;;
77026;SDS011;65956;52.986;17.490;2023-11-21T04:05:53;21.00;;;11.80;;
77026;SDS011;65956;52.986;17.490;2023-11-21T04:08:19;20.20;;;11.00;;
77026;SDS011;65956;52.986;17.490;2023-11-21T04:10:45;22.80;;;13.10;;
77026;SDS011;65956;52.986;17.490;2023-11-21T04:13:11;21.80;;;11.30;;
77026;SDS011;65956;52.986;17.490;2023-11-21T04:15:38;17.50;;;9.90;;
77026;SDS011;65956;52.986;17.490;2023-11-21T04:18:04;19.70;;;10.70;;
77026;SDS011;65956;52.986;17.490;2023-11-21T04:20:30;20.20;;;10.90;;
77026;SDS011;65956;52.986;17.490;2023-11-21T04:22:56;22.30;;;11.70;;
77026;SDS011;65956;52.986;17.490;2023-11-21T04:25:22;21.30;;;12.80;;
77026;SDS011;65956;52.986;17.490;2023-11-21T04:27:49;20.20;;;12.10;;
77026;SDS011;65956;52.986;17.490;2023-11-21T04:30:15;22.90;;;12.80;;
77026;SDS011;65956;52.986;17.490;2023-11-21T04:32:41;22.80;;;13.50;;
77026;SDS011;65956;52.986;17.490;2023-11-21T04:35:07;18.20;;;10.20;;
77026;SDS011;65956;52.986;17.490;2023-11-21T04:37:37;22.80;;;12.50;;
77026;SDS011;65956;52.986;17.490;2023-11-21T04:40:03;24.80;;;14.40;;
77026;SDS011;65956;52.986;17.490;2023-11-21T04:42:35;24.10;;;13.40;;
77026;SDS011;65956;52.986;17.490;2023-11-21T04:45:02;22.00;;;13.40;;
77026;SDS011;65956;52.986;17.490;2023-11-21T04:47:33;24.20;;;12.50;;
77026;SDS011;65956;52.986;17.490;2023-11-21T04:50:00;22.70;;;13.20;;
77026;SDS011;65956;52.986;17.490;2023-11-21T04:52:26;24.30;;;13.40;;
77026;SDS011;65956;52.986;17.490;2023-11-21T04:54:51;25.90;;;14.70;;
77026;SDS011;65956;52.986;17.490;2023-11-21T04:57:23;26.20;;;13.60;;
77026;SDS011;65956;52.986;17.490;2023-11-21T04:59:49;24.00;;;13.30;;
77026;SDS011;65956;52.986;17.490;2023-11-21T05:02:16;24.70;;;13.60;;
77026;SDS011;65956;52.986;17.490;2023-11-21T05:04:42;24.80;;;13.40;;
77026;SDS011;65956;52.986;17.490;2023-11-21T05:07:11;24.90;;;13.30;;
77026;SDS011;65956;52.986;17.490;2023-11-21T05:09:40;24.10;;;13.70;;
77026;SDS011;65956;52.986;17.490;2023-11-21T05:12:09;24.90;;;13.60;;
77026;SDS011;65956;52.986;17.490;2023-11-21T05:14:37;20.90;;;11.60;;
77026;SDS011;65956;52.986;17.490;2023-11-21T05:17:03;25.80;;;15.60;;
77026;SDS011;65956;52.986;17.490;2023-11-21T05:19:30;25.20;;;14.00;;
77026;SDS011;65956;52.986;17.490;2023-11-21T05:21:56;26.60;;;15.10;;
77026;SDS011;65956;52.986;17.490;2023-11-21T05:24:22;27.80;;;14.00;;
77026;SDS011;65956;52.986;17.490;2023-11-21T05:26:48;25.00;;;14.10;;
77026;SDS011;65956;52.986;17.490;2023-11-21T05:29:14;25.40;;;13.90;;
77026;SDS011;65956;52.986;17.490;2023-11-21T05:31:40;21.70;;;12.90;;
77026;SDS011;65956;52.986;17.490;2023-11-21T05:34:06;27.90;;;15.10;;
77026;SDS011;65956;52.986;17.490;2023-11-21T05:36:32;26.70;;;16.00;;
77026;SDS011;65956;52.986;17.490;2023-11-21T05:38:58;29.70;;;16.80;;
77026;SDS011;65956;52.986;17.490;2023-11-21T05:41:24;27.90;;;15.90;;
77026;SDS011;65956;52.986;17.490;2023-11-21T05:43:51;26.30;;;14.20;;
77026;SDS011;65956;52.986;17.490;2023-11-21T05:46:17;26.30;;;14.90;;
77026;SDS011;65956;52.986;17.490;2023-11-21T05:48:43;28.70;;;14.50;;
77026;SDS011;65956;52.986;17.490;2023-11-21T05:51:11;28.00;;;14.80;;
77026;SDS011;65956;52.986;17.490;2023-11-21T05:53:38;26.40;;;14.60;;
77026;SDS011;65956;52.986;17.490;2023-11-21T05:56:04;30.60;;;18.40;;
77026;SDS011;65956;52.986;17.490;2023-11-21T05:58:30;32.10;;;16.80;;
77026;SDS011;65956;52.986;17.490;2023-11-21T06:00:56;24.60;;;14.50;;
77026;SDS011;65956;52.986;17.490;2023-11-21T06:03:23;29.10;;;15.80;;
77026;SDS011;65956;52.986;17.490;2023-11-21T06:05:49;24.10;;;12.10;;
77026;SDS011;65956;52.986;17.490;2023-11-21T06:08:15;27.50;;;15.00;;
77026;SDS011;65956;52.986;17.490;2023-11-21T06:10:42;27.50;;;14.10;;
77026;SDS011;65956;52.986;17.490;2023-11-21T06:13:09;25.40;;;14.20;;
77026;SDS011;65956;52.986;17.490;2023-11-21T06:15:36;28.00;;;14.40;;
77026;SDS011;65956;52.986;17.490;2023-11-21T06:18:02;28.10;;;12.90;;
77026;SDS011;65956;52.986;17.490;2023-11-21T06:20:28;24.00;;;13.50;;
77026;SDS011;65956;52.986;17.490;2023-11-21T06:22:54;26.70;;;13.40;;
77026;SDS011;65956;52.986;17.490;2023-11-21T06:25:21;24.20;;;11.70;;
77026;SDS011;65956;52.986;17.490;2023-11-21T06:27:47;25.30;;;12.70;;
77026;SDS011;65956;52.986;17.490;2023-11-21T06:30:14;28.30;;;13.90;;
77026;SDS011;65956;52.986;17.490;2023-11-21T06:32:41;27.70;;;15.60;;
77026;SDS011;65956;52.986;17.490;2023-11-21T06:35:11;32.60;;;16.10;;
77026;SDS011;65956;52.986;17.490;2023-11-21T06:37:38;29.00;;;15.40;;
77026;SDS011;65956;52.986;17.490;2023-11-21T06:40:05;29.10;;;16.00;;
77026;SDS011;65956;52.986;17.490;2023-11-21T06:42:32;28.70;;;15.00;;
77026;SDS011;65956;52.986;17.490;2023-11-21T06:44:59;25.40;;;13.60;;
77026;SDS011;65956;52.986;17.490;2023-11-21T06:47:29;27.20;;;14.00;;
77026;SDS011;65956;52.986;17.490;2023-11-21T06:49:56;33.70;;;16.40;;
77026;SDS011;65956;52.986;17.490;2023-11-21T06:52:23;25.60;;;14.20;;
77026;SDS011;65956;52.986;17.490;2023-11-21T06:54:49;23.50;;;13.50;;
77026;SDS011;65956;52.986;17.490;2023-11-21T06:57:18;23.50;;;13.00;;
77026;SDS011;65956;52.986;17.490;2023-11-21T06:59:44;25.60;;;12.90;;
77026;SDS011;65956;52.986;17.490;2023-11-21T07:02:10;24.50;;;13.20;;
77026;SDS011;65956;52.986;17.490;2023-11-21T07:04:36;26.80;;;12.80;;
77026;SDS011;65956;52.986;17.490;2023-11-21T07:07:03;33.50;;;16.10;;
77026;SDS011;65956;52.986;17.490;2023-11-21T07:09:30;27.60;;;14.00;;
77026;SDS011;65956;52.986;17.490;2023-11-21T07:11:56;24.40;;;13.40;;
77026;SDS011;65956;52.986;17.490;2023-11-21T07:14:22;28.50;;;15.10;;
77026;SDS011;65956;52.986;17.490;2023-11-21T07:16:49;31.10;;;16.30;;
77026;SDS011;65956;52.986;17.490;2023-11-21T07:19:15;27.80;;;14.30;;
77026;SDS011;65956;52.986;17.490;2023-11-21T07:21:41;26.70;;;13.30;;
77026;SDS011;65956;52.986;17.490;2023-11-21T07:24:07;19.60;;;10.20;;
77026;SDS011;65956;52.986;17.490;2023-11-21T07:26:34;23.60;;;13.40;;
77026;SDS011;65956;52.986;17.490;2023-11-21T07:29:01;25.80;;;12.60;;
77026;SDS011;65956;52.986;17.490;2023-11-21T07:31:28;28.10;;;13.50;;
77026;SDS011;65956;52.986;17.490;2023-11-21T07:33:55;21.40;;;12.40;;
77026;SDS011;65956;52.986;17.490;2023-11-21T07:36:24;19.80;;;10.40;;
77026;SDS011;65956;52.986;17.490;2023-11-21T07:38:50;19.20;;;10.50;;
77026;SDS011;65956;52.986;17.490;2023-11-21T07:41:17;21.30;;;10.50;;
77026;SDS011;65956;52.986;17.490;2023-11-21T07:43:44;19.40;;;10.70;;
77026;SDS011;65956;52.986;17.490;2023-11-21T07:46:11;20.40;;;11.20;;
77026;SDS011;65956;52.986;17.490;2023-11-21T07:48:38;21.60;;;11.40;;
77026;SDS011;65956;52.986;17.490;2023-11-21T07:51:06;18.90;;;10.90;;
77026;SDS011;65956;52.986;17.490;2023-11-21T07:53:32;21.00;;;11.30;;
77026;SDS011;65956;52.986;17.490;2023-11-21T07:56:00;22.30;;;11.50;;
77026;SDS011;65956;52.986;17.490;2023-11-21T07:58:29;26.10;;;11.40;;
77026;SDS011;65956;52.986;17.490;2023-11-21T08:00:55;21.60;;;12.10;;
77026;SDS011;65956;52.986;17.490;2023-11-21T08:03:21;28.50;;;12.60;;
77026;SDS011;65956;52.986;17.490;2023-11-21T08:05:47;23.00;;;12.10;;
77026;SDS011;65956;52.986;17.490;2023-11-21T08:08:13;20.40;;;10.60;;
77026;SDS011;65956;52.986;17.490;2023-11-21T08:10:39;23.90;;;12.20;;
77026;SDS011;65956;52.986;17.490;2023-11-21T08:13:06;31.00;;;16.70;;
77026;SDS011;65956;52.986;17.490;2023-11-21T08:15:34;51.70;;;24.00;;
77026;SDS011;65956;52.986;17.490;2023-11-21T08:18:02;51.50;;;21.30;;
77026;SDS011;65956;52.986;17.490;2023-11-21T08:20:29;35.70;;;14.50;;
77026;SDS011;65956;52.986;17.490;2023-11-21T08:22:55;39.20;;;16.40;;
77026;SDS011;65956;52.986;17.490;2023-11-21T08:25:22;33.90;;;15.40;;
77026;SDS011;65956;52.986;17.490;2023-11-21T08:27:48;32.90;;;14.70;;
77026;SDS011;65956;52.986;17.490;2023-11-21T08:30:15;36.40;;;14.70;;
77026;SDS011;65956;52.986;17.490;2023-11-21T08:32:42;35.20;;;14.50;;
77026;SDS011;65956;52.986;17.490;2023-11-21T08:35:10;35.10;;;15.40;;
77026;SDS011;65956;52.986;17.490;2023-11-21T08:37:37;39.60;;;16.40;;
77026;SDS011;65956;52.986;17.490;2023-11-21T08:40:05;37.90;;;15.40;;
77026;SDS011;65956;52.986;17.490;2023-11-21T08:42:35;37.60;;;15.30;;
77026;SDS011;65956;52.986;17.490;2023-11-21T08:45:01;46.50;;;17.30;;
77026;SDS011;65956;52.986;17.490;2023-11-21T08:47:27;41.20;;;15.80;;
77026;SDS011;65956;52.986;17.490;2023-11-21T08:49:53;41.70;;;16.00;;
77026;SDS011;65956;52.986;17.490;2023-11-21T08:52:19;30.10;;;14.00;;
77026;SDS011;65956;52.986;17.490;2023-11-21T08:54:49;24.80;;;10.70;;
77026;SDS011;65956;52.986;17.490;2023-11-21T08:57:24;23.10;;;11.00;;
77026;SDS011;65956;52.986;17.490;2023-11-21T08:59:51;28.10;;;11.90;;
77026;SDS011;65956;52.986;17.490;2023-11-21T09:02:21;30.20;;;12.00;;
77026;SDS011;65956;52.986;17.490;2023-11-21T09:04:51;21.00;;;9.40;;
77026;SDS011;65956;52.986;17.490;2023-11-21T09:07:18;29.10;;;12.50;;
77026;SDS011;65956;52.986;17.490;2023-11-21T09:09:46;31.10;;;13.00;;
77026;SDS011;65956;52.986;17.490;2023-11-21T09:12:13;23.60;;;11.00;;
77026;SDS011;65956;52.986;17.490;2023-11-21T09:14:39;34.70;;;13.10;;
77026;SDS011;65956;52.986;17.490;2023-11-21T09:17:06;21.40;;;10.20;;
77026;SDS011;65956;52.986;17.490;2023-11-21T09:19:40;22.70;;;9.80;;
77026;SDS011;65956;52.986;17.490;2023-11-21T09:22:06;15.70;;;8.60;;
77026;SDS011;65956;52.986;17.490;2023-11-21T09:24:33;17.00;;;9.10;;
77026;SDS011;65956;52.986;17.490;2023-11-21T09:27:00;20.50;;;10.20;;
77026;SDS011;65956;52.986;17.490;2023-11-21T09:29:26;21.80;;;10.10;;
77026;SDS011;65956;52.986;17.490;2023-11-21T09:31:52;16.60;;;8.50;;
77026;SDS011;65956;52.986;17.490;2023-11-21T09:34:20;21.30;;;9.70;;
77026;SDS011;65956;52.986;17.490;2023-11-21T09:36:50;18.90;;;10.10;;
77026;SDS011;65956;52.986;17.490;2023-11-21T09:39:16;20.40;;;10.80;;
77026;SDS011;65956;52.986;17.490;2023-11-21T09:41:44;21.60;;;9.70;;
77026;SDS011;65956;52.986;17.490;2023-11-21T09:44:17;18.90;;;9.60;;
77026;SDS011;65956;52.986;17.490;2023-11-21T09:46:47;23.40;;;10.90;;
77026;SDS011;65956;52.986;17.490;2023-11-21T09:49:18;16.00;;;8.00;;
77026;SDS011;65956;52.986;17.490;2023-11-21T09:51:51;21.90;;;10.00;;
77026;SDS011;65956;52.986;17.490;2023-11-21T09:54:21;15.20;;;7.90;;
77026;SDS011;65956;52.986;17.490;2023-11-21T09:56:48;19.30;;;10.00;;
77026;SDS011;65956;52.986;17.490;2023-11-21T09:59:16;18.50;;;8.40;;
77026;SDS011;65956;52.986;17.490;2023-11-21T10:01:42;19.20;;;9.50;;
77026;SDS011;65956;52.986;17.490;2023-11-21T10:04:09;16.00;;;8.80;;
77026;SDS011;65956;52.986;17.490;2023-11-21T10:06:41;16.60;;;8.10;;
77026;SDS011;65956;52.986;17.490;2023-11-21T10:09:10;14.40;;;7.60;;
77026;SDS011;65956;52.986;17.490;2023-11-21T10:11:41;18.50;;;9.40;;
77026;SDS011;65956;52.986;17.490;2023-11-21T10:14:08;16.50;;;9.10;;
77026;SDS011;65956;52.986;17.490;2023-11-21T10:16:38;18.50;;;9.80;;
77026;SDS011;65956;52.986;17.490;2023-11-21T10:19:05;18.30;;;9.40;;
77026;SDS011;65956;52.986;17.490;2023-11-21T10:21:32;15.30;;;7.80;;
77026;SDS011;65956;52.986;17.490;2023-11-21T10:23:59;20.70;;;10.50;;
77026;SDS011;65956;52.986;17.490;2023-11-21T10:26:26;15.40;;;7.80;;
77026;SDS011;65956;52.986;17.490;2023-11-21T10:29:00;15.60;;;9.00;;
77026;SDS011;65956;52.986;17.490;2023-11-21T10:31:32;33.90;;;17.20;;
77026;SDS011;65956;52.986;17.490;2023-11-21T10:34:15;31.60;;;13.30;;
77026;SDS011;65956;52.986;17.490;2023-11-21T10:36:43;16.30;;;8.10;;
77026;SDS011;65956;52.986;17.490;2023-11-21T10:39:09;16.20;;;8.50;;
77026;SDS011;65956;52.986;17.490;2023-11-21T10:41:36;18.90;;;8.90;;
77026;SDS011;65956;52.986;17.490;2023-11-21T10:44:02;21.60;;;10.20;;
77026;SDS011;65956;52.986;17.490;2023-11-21T10:46:32;15.20;;;7.30;;
77026;SDS011;65956;52.986;17.490;2023-11-21T10:48:59;20.50;;;9.60;;
77026;SDS011;65956;52.986;17.490;2023-11-21T10:51:25;17.80;;;9.50;;
77026;SDS011;65956;52.986;17.490;2023-11-21T10:53:52;16.80;;;9.00;;
77026;SDS011;65956;52.986;17.490;2023-11-21T10:56:18;16.50;;;8.10;;
77026;SDS011;65956;52.986;17.490;2023-11-21T10:58:48;20.00;;;9.70;;
77026;SDS011;65956;52.986;17.490;2023-11-21T11:01:17;18.60;;;9.30;;
77026;SDS011;65956;52.986;17.490;2023-11-21T11:03:47;17.50;;;8.60;;
77026;SDS011;65956;52.986;17.490;2023-11-21T11:06:14;19.80;;;10.20;;
77026;SDS011;65956;52.986;17.490;2023-11-21T11:08:42;25.10;;;11.80;;
77026;SDS011;65956;52.986;17.490;2023-11-21T11:11:09;21.50;;;11.10;;
77026;SDS011;65956;52.986;17.490;2023-11-21T11:13:37;21.50;;;11.10;;
77026;SDS011;65956;52.986;17.490;2023-11-21T11:16:04;18.20;;;9.80;;
77026;SDS011;65956;52.986;17.490;2023-11-21T11:18:53;18.80;;;10.20;;
77026;SDS011;65956;52.986;17.490;2023-11-21T11:21:27;17.90;;;9.50;;
77026;SDS011;65956;52.986;17.490;2023-11-21T11:24:11;17.00;;;9.20;;
77026;SDS011;65956;52.986;17.490;2023-11-21T11:33:12;19.60;;;10.80;;
77026;SDS011;65956;52.986;17.490;2023-11-21T11:35:17;17.80;;;8.50;;
77026;SDS011;65956;52.986;17.490;2023-11-21T11:37:49;16.60;;;8.30;;
77026;SDS011;65956;52.986;17.490;2023-11-21T11:40:15;20.30;;;9.80;;
77026;SDS011;65956;52.986;17.490;2023-11-21T11:43:01;17.70;;;10.00;;
77026;SDS011;65956;52.986;17.490;2023-11-21T11:45:33;14.30;;;7.80;;
77026;SDS011;65956;52.986;17.490;2023-11-21T11:48:07;18.00;;;10.30;;
77026;SDS011;65956;52.986;17.490;2023-11-21T11:50:42;25.20;;;12.50;;
77026;SDS011;65956;52.986;17.490;2023-11-21T11:59:00;52.20;;;21.20;;
77026;SDS011;65956;52.986;17.490;2023-11-21T12:01:28;40.30;;;17.40;;
77026;SDS011;65956;52.986;17.490;2023-11-21T12:06:47;43.30;;;17.40;;
77026;SDS011;65956;52.986;17.490;2023-11-21T12:09:19;42.00;;;19.60;;
77026;SDS011;65956;52.986;17.490;2023-11-21T12:11:47;21.90;;;12.20;;
77026;SDS011;65956;52.986;17.490;2023-11-21T12:14:15;29.40;;;14.70;;
77026;SDS011;65956;52.986;17.490;2023-11-21T12:16:42;21.50;;;10.80;;
77026;SDS011;65956;52.986;17.490;2023-11-21T12:19:09;28.10;;;14.50;;
77026;SDS011;65956;52.986;17.490;2023-11-21T12:21:36;39.70;;;18.80;;
77026;SDS011;65956;52.986;17.490;2023-11-21T12:24:02;34.10;;;16.80;;
77026;SDS011;65956;52.986;17.490;2023-11-21T12:26:29;36.90;;;19.80;;
77026;SDS011;65956;52.986;17.490;2023-11-21T12:28:55;57.00;;;30.90;;
77026;SDS011;65956;52.986;17.490;2023-11-21T12:31:24;40.30;;;26.10;;
77026;SDS011;65956;52.986;17.490;2023-11-21T12:33:50;30.80;;;17.40;;
77026;SDS011;65956;52.986;17.490;2023-11-21T12:36:17;22.10;;;10.80;;
77026;SDS011;65956;52.986;17.490;2023-11-21T12:38:43;56.60;;;25.30;;
77026;SDS011;65956;52.986;17.490;2023-11-21T12:41:09;28.60;;;14.00;;
77026;SDS011;65956;52.986;17.490;2023-11-21T12:43:36;40.70;;;17.60;;
77026;SDS011;65956;52.986;17.490;2023-11-21T12:46:04;27.00;;;12.60;;
77026;SDS011;65956;52.986;17.490;2023-11-21T12:48:43;36.70;;;18.00;;
77026;SDS011;65956;52.986;17.490;2023-11-21T12:51:11;24.00;;;12.90;;
77026;SDS011;65956;52.986;17.490;2023-11-21T12:53:39;30.80;;;13.60;;
77026;SDS011;65956;52.986;17.490;2023-11-21T12:56:13;31.30;;;13.70;;
77026;SDS011;65956;52.986;17.490;2023-11-21T12:58:44;20.40;;;9.90;;
77026;SDS011;65956;52.986;17.490;2023-11-21T13:01:13;18.20;;;9.40;;
77026;SDS011;65956;52.986;17.490;2023-11-21T13:06:16;32.30;;;13.80;;
77026;SDS011;65956;52.986;17.490;2023-11-21T13:08:45;31.80;;;13.80;;
77026;SDS011;65956;52.986;17.490;2023-11-21T13:11:11;22.70;;;11.50;;
77026;SDS011;65956;52.986;17.490;2023-11-21T13:13:40;25.20;;;12.00;;
77026;SDS011;65956;52.986;17.490;2023-11-21T13:16:09;21.50;;;10.40;;
77026;SDS011;65956;52.986;17.490;2023-11-21T13:18:35;36.10;;;15.80;;
77026;SDS011;65956;52.986;17.490;2023-11-21T13:21:03;31.90;;;14.60;;
77026;SDS011;65956;52.986;17.490;2023-11-21T13:23:38;24.50;;;12.10;;
77026;SDS011;65956;52.986;17.490;2023-11-21T13:26:04;35.20;;;14.90;;
77026;SDS011;65956;52.986;17.490;2023-11-21T13:28:31;22.20;;;10.40;;
77026;SDS011;65956;52.986;17.490;2023-11-21T13:30:59;21.20;;;9.60;;
77026;SDS011;65956;52.986;17.490;2023-11-21T13:33:35;30.90;;;14.50;;
77026;SDS011;65956;52.986;17.490;2023-11-21T13:38:34;32.10;;;13.80;;
77026;SDS011;65956;52.986;17.490;2023-11-21T13:41:03;22.40;;;10.20;;
77026;SDS011;65956;52.986;17.490;2023-11-21T13:43:33;30.30;;;13.80;;
77026;SDS011;65956;52.986;17.490;2023-11-21T13:45:59;23.10;;;10.60;;
77026;SDS011;65956;52.986;17.490;2023-11-21T13:48:29;45.10;;;25.60;;
77026;SDS011;65956;52.986;17.490;2023-11-21T13:51:03;51.80;;;26.20;;
77026;SDS011;65956;52.986;17.490;2023-11-21T13:53:46;76.60;;;34.00;;
77026;SDS011;65956;52.986;17.490;2023-11-21T13:56:18;55.30;;;21.10;;
77026;SDS011;65956;52.986;17.490;2023-11-21T13:58:53;45.60;;;17.80;;
77026;SDS011;65956;52.986;17.490;2023-11-21T14:01:22;43.20;;;16.90;;
77026;SDS011;65956;52.986;17.490;2023-11-21T14:03:49;52.00;;;20.00;;
77026;SDS011;65956;52.986;17.490;2023-11-21T14:06:17;72.50;;;27.10;;
77026;SDS011;65956;52.986;17.490;2023-11-21T14:08:50;65.10;;;26.80;;
77026;SDS011;65956;52.986;17.490;2023-11-21T14:11:16;114.80;;;41.50;;
77026;SDS011;65956;52.986;17.490;2023-11-21T14:13:44;54.20;;;23.10;;
77026;SDS011;65956;52.986;17.490;2023-11-21T14:16:17;84.40;;;33.30;;
77026;SDS011;65956;52.986;17.490;2023-11-21T14:18:44;83.70;;;34.60;;
77026;SDS011;65956;52.986;17.490;2023-11-21T14:21:24;49.60;;;21.30;;
77026;SDS011;65956;52.986;17.490;2023-11-21T14:23:51;41.60;;;18.70;;
77026;SDS011;65956;52.986;17.490;2023-11-21T14:26:17;36.00;;;16.30;;
77026;SDS011;65956;52.986;17.490;2023-11-21T14:28:43;29.10;;;11.30;;
77026;SDS011;65956;52.986;17.490;2023-11-21T14:31:10;42.00;;;18.60;;
77026;SDS011;65956;52.986;17.490;2023-11-21T14:33:39;35.00;;;15.70;;